Time;durP1;ratioP1;P1;durP2;ratioP2;P2;SDS_P1;SDS_P2;PMS_P1;PMS_P2;Temp;Humidity;BMP_temperature;BMP_pressure;BME280_temperature;BME280_humidity;BME280_pressure;Samples;Min_cycle;Max_cycle;Signal;HPM_P1;HPM_P2
2022/12/10 00:02:09;;;;;;;;;;;16.10;59.50;;;;;;10215599;28;90201;-65
2022/12/10 00:07:11;;;;;;;;;;;16.10;59.40;;;;;;10228891;28;89856;-65
2022/12/10 00:12:13;;;;;;;;;;;16.10;59.20;;;;;;10215873;28;90141;-64
2022/12/10 00:17:14;;;;;;;;;;;16.00;59.00;;;;;;10215630;28;89058;-65
2022/12/10 00:22:16;;;;;;;;;;;16.00;59.40;;;;;;10229664;28;89039;-64
2022/12/10 00:27:18;;;;;;;;;;;16.00;59.40;;;;;;10229916;28;88582;-65
2022/12/10 00:32:20;;;;;;;;;;;16.00;59.20;;;;;;10230009;28;89167;-64
2022/12/10 00:37:22;;;;;;;;;;;16.00;59.10;;;;;;10214184;28;89095;-65
2022/12/10 00:42:23;;;;;;;;;;;16.00;59.20;;;;;;10216005;28;89326;-65
2022/12/10 00:47:25;;;;;;;;;;;16.00;59.10;;;;;;10229044;28;88268;-64
2022/12/10 00:52:27;;;;;;;;;;;16.00;59.00;;;;;;10229203;28;90522;-65
2022/12/10 00:57:29;;;;;;;;;;;16.00;59.00;;;;;;10213996;28;89347;-64
2022/12/10 01:02:30;;;;;;;;;;;15.90;59.00;;;;;;10212907;28;89099;-65
2022/12/10 01:07:32;;;;;;;;;;;15.90;59.00;;;;;;10213859;28;89151;-64
2022/12/10 01:12:34;;;;;;;;;;;15.90;59.00;;;;;;10214169;28;88140;-65
2022/12/10 01:17:36;;;;;;;;;;;15.90;58.80;;;;;;10227896;28;89794;-65
2022/12/10 01:22:38;;;;;;;;;;;15.90;58.90;;;;;;10213816;28;88731;-65
2022/12/10 01:27:40;;;;;;;;;;;15.90;58.70;;;;;;10212729;28;89039;-65
2022/12/10 01:32:41;;;;;;;;;;;15.90;58.70;;;;;;10213741;28;88400;-65
2022/12/10 01:37:43;;;;;;;;;;;15.90;58.70;;;;;;10228296;28;89255;-65
2022/12/10 01:42:45;;;;;;;;;;;15.80;58.70;;;;;;10212686;28;89106;-65
2022/12/10 01:47:47;;;;;;;;;;;15.80;58.70;;;;;;10211911;28;89146;-65
2022/12/10 01:52:49;;;;;;;;;;;15.90;58.70;;;;;;10212480;28;89660;-65
2022/12/10 01:57:50;;;;;;;;;;;15.80;58.60;;;;;;10215102;28;88734;-65
2022/12/10 02:02:56;;;;;;;;;;;15.80;58.70;;;;;;10619759;23;89719;-68
2022/12/10 02:08:06;;;;;;;;;;;15.80;58.70;;;;;;10216434;28;90497;-68
2022/12/10 02:13:17;;;;;;;;;;;15.80;58.70;;;;;;10218950;28;90201;-68
2022/12/10 02:18:24;;;;;;;;;;;15.80;58.70;;;;;;10233457;28;88921;-68
2022/12/10 02:23:35;;;;;;;;;;;15.70;58.70;;;;;;10234030;28;87779;-68
2022/12/10 02:28:39;;;;;;;;;;;15.80;58.70;;;;;;10233082;28;89199;-67
2022/12/10 02:33:43;;;;;;;;;;;15.80;58.60;;;;;;10219020;28;89652;-68
2022/12/10 02:38:47;;;;;;;;;;;15.80;58.50;;;;;;10218668;28;90775;-68
2022/12/10 02:43:51;;;;;;;;;;;15.80;58.50;;;;;;10232161;28;88167;-68
2022/12/10 02:48:53;;;;;;;;;;;15.80;58.50;;;;;;10217456;28;90048;-68
2022/12/10 02:53:59;;;;;;;;;;;15.80;58.40;;;;;;10217611;28;90034;-68
2022/12/10 02:59:06;;;;;;;;;;;15.80;58.40;;;;;;10232138;28;90046;-68
2022/12/10 03:04:15;;;;;;;;;;;15.70;58.40;;;;;;10231546;28;89245;-68
2022/12/10 03:09:36;;;;;;;;;;;15.70;58.40;;;;;;10215183;28;89861;-68
2022/12/10 03:14:39;;;;;;;;;;;15.80;58.40;;;;;;10232561;28;89117;-68
2022/12/10 03:19:42;;;;;;;;;;;15.80;59.40;;;;;;10217371;28;92214;-68
2022/12/10 03:24:44;;;;;;;;;;;15.70;58.20;;;;;;10228675;28;90085;-68
2022/12/10 03:29:48;;;;;;;;;;;15.80;58.40;;;;;;10216320;28;89668;-67
2022/12/10 03:34:51;;;;;;;;;;;15.70;58.30;;;;;;10216685;28;89003;-67
2022/12/10 03:39:53;;;;;;;;;;;15.70;58.30;;;;;;10215811;28;90047;-68
2022/12/10 03:44:55;;;;;;;;;;;15.70;58.30;;;;;;10212938;28;89029;-68
2022/12/10 03:49:57;;;;;;;;;;;15.70;58.30;;;;;;10215655;28;90055;-68
2022/12/10 03:54:58;;;;;;;;;;;15.70;58.00;;;;;;10215436;28;89862;-68
2022/12/10 04:00:00;;;;;;;;;;;15.70;58.00;;;;;;10212865;28;91905;-67
2022/12/10 04:05:02;;;;;;;;;;;15.70;58.00;;;;;;10212858;28;89274;-68
2022/12/10 04:10:04;;;;;;;;;;;15.70;57.90;;;;;;10214380;28;90046;-68
2022/12/10 04:31:08;;;;;;;;;;;15.70;57.90;;;;;;10215655;28;89070;-68
2022/12/10 04:36:10;;;;;;;;;;;15.70;57.80;;;;;;10213178;28;90046;-68
2022/12/10 04:41:15;;;;;;;;;;;15.70;57.70;;;;;;10212353;28;88986;-68
2022/12/10 06:03:43;;;;;;;;;;;16.10;57.30;;;;;;10173691;28;87710;-68
2022/12/10 06:08:45;;;;;;;;;;;16.40;56.80;;;;;;10212590;28;89111;-66
2022/12/10 06:13:47;;;;;;;;;;;16.60;56.60;;;;;;10211629;28;90434;-66
2022/12/10 06:18:56;;;;;;;;;;;16.70;56.40;;;;;;10209600;28;90787;-66
2022/12/10 06:23:58;;;;;;;;;;;16.90;56.10;;;;;;10209986;28;89602;-66
2022/12/10 06:29:00;;;;;;;;;;;16.90;55.90;;;;;;10211735;28;88741;-66
2022/12/10 06:34:02;;;;;;;;;;;17.00;55.80;;;;;;10211498;28;90178;-66
2022/12/10 06:39:03;;;;;;;;;;;17.10;55.80;;;;;;10210994;28;90508;-67
2022/12/10 06:44:06;;;;;;;;;;;17.10;55.60;;;;;;10212425;28;88116;-66
2022/12/10 06:49:08;;;;;;;;;;;17.20;55.60;;;;;;10217075;28;89043;-67
2022/12/10 06:54:10;;;;;;;;;;;17.20;55.60;;;;;;10218727;28;88340;-67
2022/12/10 06:59:13;;;;;;;;;;;17.20;55.60;;;;;;10216511;28;89323;-67
2022/12/10 07:04:15;;;;;;;;;;;17.10;55.50;;;;;;10216008;28;88495;-67
2022/12/10 07:09:16;;;;;;;;;;;17.10;55.60;;;;;;10216850;28;90649;-67
2022/12/10 07:14:18;;;;;;;;;;;17.10;55.80;;;;;;10215887;28;88976;-66
2022/12/10 07:19:20;;;;;;;;;;;17.10;56.00;;;;;;10217983;28;89108;-67
2022/12/10 07:24:21;;;;;;;;;;;17.20;55.90;;;;;;10216960;28;89476;-67
2022/12/10 07:29:23;;;;;;;;;;;17.30;55.80;;;;;;10217524;28;90347;-67
2022/12/10 07:34:25;;;;;;;;;;;17.40;55.70;;;;;;10217126;28;89309;-67
2022/12/10 07:39:27;;;;;;;;;;;17.50;55.70;;;;;;10216552;28;89438;-68
2022/12/10 07:44:28;;;;;;;;;;;17.50;55.70;;;;;;10216008;28;88458;-68
2022/12/10 07:49:30;;;;;;;;;;;17.40;55.70;;;;;;10216838;28;88920;-67
2022/12/10 07:54:32;;;;;;;;;;;17.40;56.00;;;;;;10214782;28;89432;-68
2022/12/10 07:59:34;;;;;;;;;;;17.40;56.10;;;;;;10215200;28;90414;-67
2022/12/10 08:04:37;;;;;;;;;;;17.40;56.20;;;;;;10210940;28;89044;-69
2022/12/10 08:09:39;;;;;;;;;;;17.50;56.20;;;;;;10212867;28;89656;-66
2022/12/10 08:14:41;;;;;;;;;;;17.60;57.10;;;;;;10212874;28;89016;-66
2022/12/10 08:19:43;;;;;;;;;;;17.60;57.70;;;;;;10213585;28;89216;-65
2022/12/10 08:24:44;;;;;;;;;;;17.60;58.00;;;;;;10214698;28;88148;-66
2022/12/10 08:29:46;;;;;;;;;;;17.50;58.10;;;;;;10214838;28;89134;-68
2022/12/10 08:34:48;;;;;;;;;;;17.60;58.40;;;;;;10213467;28;87797;-66
2022/12/10 08:39:50;;;;;;;;;;;17.60;58.00;;;;;;10214534;28;88976;-69
2022/12/10 08:44:52;;;;;;;;;;;17.60;57.90;;;;;;10212886;28;89013;-67
2022/12/10 08:49:53;;;;;;;;;;;17.60;57.60;;;;;;10213664;28;90834;-66
2022/12/10 08:54:55;;;;;;;;;;;17.50;57.40;;;;;;10213150;28;88117;-66
2022/12/10 08:59:57;;;;;;;;;;;17.40;57.50;;;;;;10213966;28;89872;-67
2022/12/10 09:04:58;;;;;;;;;;;17.40;57.50;;;;;;10214163;28;88697;-67
2022/12/10 09:10:00;;;;;;;;;;;17.50;57.40;;;;;;10212772;28;88780;-67
2022/12/10 09:15:02;;;;;;;;;;;17.50;57.20;;;;;;10213924;28;90099;-66
2022/12/10 09:20:04;;;;;;;;;;;17.60;56.90;;;;;;10212740;28;88654;-67
2022/12/10 09:25:07;;;;;;;;;;;17.60;60.00;;;;;;10213738;28;88502;-66
2022/12/10 09:30:09;;;;;;;;;;;17.60;58.90;;;;;;10213156;28;89047;-66
2022/12/10 09:35:11;;;;;;;;;;;17.60;58.00;;;;;;10212864;28;88454;-66
2022/12/10 09:40:17;;;;;;;;;;;17.60;57.80;;;;;;10213801;28;90504;-66
2022/12/10 09:45:38;;;;;;;;;;;17.70;57.90;;;;;;10212008;28;89184;-67
2022/12/10 09:50:43;;;;;;;;;;;17.70;57.90;;;;;;10213264;28;89061;-67
2022/12/10 09:55:46;;;;;;;;;;;17.60;58.20;;;;;;10212941;28;89050;-67
2022/12/10 10:00:51;;;;;;;;;;;17.60;58.10;;;;;;10212901;28;89094;-67
2022/12/10 10:05:54;;;;;;;;;;;17.60;58.50;;;;;;10212785;28;89223;-66
2022/12/10 10:10:56;;;;;;;;;;;17.70;58.40;;;;;;10212206;28;90040;-69
2022/12/10 10:16:01;;;;;;;;;;;17.70;58.40;;;;;;10213785;28;88435;-68
2022/12/10 10:21:19;;;;;;;;;;;17.90;58.30;;;;;;10216994;28;90190;-68
2022/12/10 10:26:22;;;;;;;;;;;18.00;57.80;;;;;;10218237;28;89110;-67
2022/12/10 10:31:25;;;;;;;;;;;18.10;57.30;;;;;;10218331;28;90356;-67
2022/12/10 10:36:31;;;;;;;;;;;18.10;57.00;;;;;;10218963;28;88870;-68
2022/12/10 10:41:37;;;;;;;;;;;18.00;56.80;;;;;;10218964;28;90082;-69
2022/12/10 10:46:40;;;;;;;;;;;17.90;56.90;;;;;;10216964;28;90425;-68
2022/12/10 10:51:43;;;;;;;;;;;17.80;56.90;;;;;;10217117;28;89047;-69
2022/12/10 10:56:45;;;;;;;;;;;17.60;57.00;;;;;;10218544;28;89055;-69
2022/12/10 11:01:48;;;;;;;;;;;17.60;57.30;;;;;;10217938;28;90616;-70
2022/12/10 11:06:52;;;;;;;;;;;17.60;57.20;;;;;;10218147;28;88882;-69
2022/12/10 11:11:58;;;;;;;;;;;17.70;57.10;;;;;;10217185;28;89074;-67
2022/12/10 11:17:01;;;;;;;;;;;17.80;56.90;;;;;;10217912;28;89123;-72
2022/12/10 11:22:22;;;;;;;;;;;17.90;57.50;;;;;;10217366;28;90827;-70
2022/12/10 11:27:24;;;;;;;;;;;18.00;57.00;;;;;;10218748;28;89972;-70
2022/12/10 11:32:34;;;;;;;;;;;18.00;56.70;;;;;;10217554;28;89091;-70
2022/12/10 11:37:36;;;;;;;;;;;17.90;56.80;;;;;;10217002;28;89076;-70
2022/12/10 11:42:47;;;;;;;;;;;17.80;57.00;;;;;;10216014;28;89339;-70
2022/12/10 11:48:08;;;;;;;;;;;17.90;57.30;;;;;;10216234;28;89139;-69
2022/12/10 11:53:15;;;;;;;;;;;18.00;57.20;;;;;;10217241;28;89166;-68
2022/12/10 11:58:26;;;;;;;;;;;18.10;57.00;;;;;;10218207;28;88999;-69
2022/12/10 12:03:36;;;;;;;;;;;18.10;56.70;;;;;;10214851;28;88990;-68
2022/12/10 12:08:44;;;;;;;;;;;18.00;56.50;;;;;;10215924;28;90042;-67
2022/12/10 12:13:56;;;;;;;;;;;17.90;56.60;;;;;;10216161;28;89144;-73
2022/12/10 12:19:00;;;;;;;;;;;17.70;56.90;;;;;;10216151;28;88694;-69
2022/12/10 12:24:05;;;;;;;;;;;17.60;57.00;;;;;;10215936;28;90142;-70
2022/12/10 12:29:25;;;;;;;;;;;17.70;56.90;;;;;;10214442;28;90086;-70
2022/12/10 12:34:33;;;;;;;;;;;17.80;56.60;;;;;;10213040;28;90145;-68
2022/12/10 12:39:45;;;;;;;;;;;17.80;56.40;;;;;;10215412;28;89090;-71
2022/12/10 12:44:52;;;;;;;;;;;17.70;56.20;;;;;;10212619;28;89127;-69
2022/12/10 12:49:54;;;;;;;;;;;17.60;56.20;;;;;;10216034;28;87901;-70
2022/12/10 12:54:58;;;;;;;;;;;17.50;56.30;;;;;;10214854;28;90048;-68
2022/12/10 13:00:05;;;;;;;;;;;17.50;56.10;;;;;;10214978;28;89361;-70
2022/12/10 13:05:16;;;;;;;;;;;17.50;56.20;;;;;;10214460;28;90973;-70
2022/12/10 13:10:23;;;;;;;;;;;17.40;56.30;;;;;;10215487;28;89583;-70
2022/12/10 13:15:38;;;;;;;;;;;17.40;56.50;;;;;;10215790;28;90032;-70
2022/12/10 13:20:41;;;;;;;;;;;17.40;56.40;;;;;;10213148;28;89061;-69
2022/12/10 13:25:45;;;;;;;;;;;17.50;56.30;;;;;;10214135;28;88127;-68
2022/12/10 13:31:17;;;;;;;;;;;17.60;57.70;;;;;;10213456;28;89672;-69
2022/12/10 13:36:27;;;;;;;;;;;17.70;58.10;;;;;;10211937;28;90021;-68
2022/12/10 13:47:12;;;;;;;;;;;17.90;59.90;;;;;;10213528;28;89836;-69
2022/12/10 13:52:35;;;;;;;;;;;17.90;58.30;;;;;;10213438;28;89967;-68
2022/12/10 13:57:56;;;;;;;;;;;17.80;58.00;;;;;;10219850;28;89814;-69
2022/12/10 14:03:16;;;;;;;;;;;17.80;58.00;;;;;;10220408;28;90017;-69
2022/12/10 14:08:20;;;;;;;;;;;17.70;57.90;;;;;;10220935;28;89018;-68
2022/12/10 14:13:30;;;;;;;;;;;17.80;57.90;;;;;;10218773;28;89972;-68
2022/12/10 14:18:31;;;;;;;;;;;17.90;57.80;;;;;;10219589;28;90048;-68
2022/12/10 14:23:35;;;;;;;;;;;17.90;57.40;;;;;;10219622;28;89414;-68
2022/12/10 14:28:44;;;;;;;;;;;17.90;57.50;;;;;;10221027;28;90210;-68
2022/12/10 14:33:47;;;;;;;;;;;17.80;57.30;;;;;;10220032;28;88626;-68
2022/12/10 14:38:49;;;;;;;;;;;17.70;57.30;;;;;;10219408;28;89355;-68
2022/12/10 14:43:51;;;;;;;;;;;17.80;57.30;;;;;;10219427;28;90047;-68
2022/12/10 14:48:54;;;;;;;;;;;17.90;57.00;;;;;;10218425;28;90893;-68
2022/12/10 14:53:56;;;;;;;;;;;17.90;56.60;;;;;;10219217;28;89605;-68
2022/12/10 14:59:03;;;;;;;;;;;17.80;56.30;;;;;;10218883;28;89078;-68
2022/12/10 15:04:06;;;;;;;;;;;17.80;56.30;;;;;;10217156;28;89361;-68
2022/12/10 15:09:24;;;;;;;;;;;17.70;56.50;;;;;;10219080;28;88391;-68
2022/12/10 15:14:26;;;;;;;;;;;17.70;56.60;;;;;;10219047;28;89066;-70
2022/12/10 15:19:28;;;;;;;;;;;17.80;56.20;;;;;;10217023;28;88515;-69
2022/12/10 15:24:36;;;;;;;;;;;17.90;56.00;;;;;;10218691;28;87811;-69
2022/12/10 15:29:38;;;;;;;;;;;17.80;55.70;;;;;;10218123;28;89384;-67
2022/12/10 15:34:41;;;;;;;;;;;17.70;55.70;;;;;;10216824;28;89075;-68
2022/12/10 15:39:45;;;;;;;;;;;17.60;55.70;;;;;;10215599;28;90767;-68
2022/12/10 15:44:47;;;;;;;;;;;17.60;55.80;;;;;;10216294;28;89435;-69
2022/12/10 15:49:50;;;;;;;;;;;17.70;55.90;;;;;;10216676;28;89636;-68
2022/12/10 15:54:53;;;;;;;;;;;17.80;55.80;;;;;;10216663;28;89716;-68
2022/12/10 15:59:55;;;;;;;;;;;18.00;55.50;;;;;;10214703;28;88340;-68
2022/12/10 16:04:57;;;;;;;;;;;18.20;55.20;;;;;;10214500;28;89809;-68
2022/12/10 16:09:59;;;;;;;;;;;18.40;54.70;;;;;;10214149;28;88868;-69
2022/12/10 16:15:01;;;;;;;;;;;18.40;54.30;;;;;;10216517;28;88720;-68
2022/12/10 16:20:14;;;;;;;;;;;18.30;54.10;;;;;;10215731;28;89067;-67
2022/12/10 16:25:16;;;;;;;;;;;18.20;54.20;;;;;;10215867;28;89095;-68
2022/12/10 16:30:22;;;;;;;;;;;18.10;54.40;;;;;;10213627;28;89808;-68
2022/12/10 16:35:23;;;;;;;;;;;18.10;54.60;;;;;;10215177;28;89008;-69
2022/12/10 16:40:27;;;;;;;;;;;18.20;54.50;;;;;;10214947;28;89401;-68
2022/12/10 16:45:34;;;;;;;;;;;18.20;54.30;;;;;;10215244;28;89087;-67
2022/12/10 16:50:36;;;;;;;;;;;18.20;54.00;;;;;;10216246;28;89901;-67
2022/12/10 16:55:38;;;;;;;;;;;18.20;54.00;;;;;;10213884;28;89616;-67
2022/12/10 17:00:42;;;;;;;;;;;18.20;54.10;;;;;;10214120;28;90047;-66
2022/12/10 17:05:45;;;;;;;;;;;18.20;54.30;;;;;;10214487;28;88601;-67
2022/12/10 17:16:11;;;;;;;;;;;18.40;53.80;;;;;;10213842;28;88907;-66
2022/12/10 17:21:13;;;;;;;;;;;18.40;53.80;;;;;;10211626;28;90201;-66
2022/12/10 17:26:26;;;;;;;;;;;18.30;53.90;;;;;;10213847;28;88868;-65
2022/12/10 17:31:28;;;;;;;;;;;18.30;54.90;;;;;;10212248;28;90141;-68
2022/12/10 17:36:30;;;;;;;;;;;18.40;55.80;;;;;;10212305;28;90118;-67
2022/12/10 17:41:32;;;;;;;;;;;18.40;55.50;;;;;;10214028;28;89039;-66
2022/12/10 17:46:34;;;;;;;;;;;18.50;57.10;;;;;;10214772;28;89625;-68
2022/12/10 17:51:35;;;;;;;;;;;18.50;59.30;;;;;;10214105;28;89149;-66
2022/12/10 17:56:38;;;;;;;;;;;18.30;60.90;;;;;;10214403;28;88327;-64
2022/12/10 18:01:39;;;;;;;;;;;18.30;63.50;;;;;;10212976;28;89133;-64
2022/12/10 18:06:48;;;;;;;;;;;18.30;67.40;;;;;;10213146;28;89434;-63
2022/12/10 18:11:53;;;;;;;;;;;18.40;65.00;;;;;;10213062;28;90806;-66
2022/12/10 18:16:55;;;;;;;;;;;18.50;62.90;;;;;;10211934;28;90376;-67
2022/12/10 18:21:56;;;;;;;;;;;18.60;61.50;;;;;;10212044;28;90534;-67
2022/12/10 18:26:58;;;;;;;;;;;18.50;60.80;;;;;;10210967;28;88109;-66
2022/12/10 18:32:00;;;;;;;;;;;18.40;60.50;;;;;;10211657;28;88114;-65
2022/12/10 18:37:02;;;;;;;;;;;18.40;60.30;;;;;;10212912;28;90196;-65
2022/12/10 18:42:03;;;;;;;;;;;18.50;60.10;;;;;;10215465;28;89029;-67
2022/12/10 18:47:08;;;;;;;;;;;18.60;59.70;;;;;;10219179;28;88618;-67
2022/12/10 18:52:10;;;;;;;;;;;18.70;59.40;;;;;;10217843;28;88362;-66
2022/12/10 18:57:12;;;;;;;;;;;18.60;59.10;;;;;;10219152;28;88911;-65
2022/12/10 19:02:33;;;;;;;;;;;18.50;59.50;;;;;;10216001;28;89028;-69
2022/12/10 19:07:35;;;;;;;;;;;18.50;60.10;;;;;;10217960;28;90654;-67
2022/12/10 19:12:37;;;;;;;;;;;18.40;60.30;;;;;;10216852;28;89719;-68
2022/12/10 19:17:40;;;;;;;;;;;18.50;60.30;;;;;;10216464;28;89846;-67
2022/12/10 19:22:42;;;;;;;;;;;18.50;60.00;;;;;;10213946;28;89094;-66
2022/12/10 19:27:44;;;;;;;;;;;18.50;59.70;;;;;;10215856;28;88743;-66
2022/12/10 19:32:46;;;;;;;;;;;18.40;59.40;;;;;;10214356;28;88841;-66
2022/12/10 19:37:48;;;;;;;;;;;18.30;59.30;;;;;;10216669;28;88756;-65
2022/12/10 19:42:59;;;;;;;;;;;18.40;60.20;;;;;;10215902;28;90207;-64
2022/12/10 19:48:01;;;;;;;;;;;18.40;61.30;;;;;;10215372;28;89895;-65
2022/12/10 19:53:03;;;;;;;;;;;18.50;60.70;;;;;;10213079;28;89848;-65
2022/12/10 19:58:04;;;;;;;;;;;18.40;60.00;;;;;;10213733;28;89079;-65
2022/12/10 20:03:06;;;;;;;;;;;18.40;60.10;;;;;;10213673;28;88440;-66
2022/12/10 20:08:09;;;;;;;;;;;18.30;60.10;;;;;;10214468;28;89444;-66
2022/12/10 20:13:11;;;;;;;;;;;18.20;60.20;;;;;;10213876;28;90001;-65
2022/12/10 20:18:13;;;;;;;;;;;18.20;60.40;;;;;;10214620;28;88881;-65
2022/12/10 20:23:14;;;;;;;;;;;18.10;60.50;;;;;;10213950;28;89664;-65
2022/12/10 20:28:16;;;;;;;;;;;18.10;60.60;;;;;;10214552;28;88170;-66
2022/12/10 20:33:18;;;;;;;;;;;18.10;60.60;;;;;;10213271;28;89615;-65
2022/12/10 20:38:39;;;;;;;;;;;18.10;60.60;;;;;;10212064;28;89416;-65
2022/12/10 20:43:41;;;;;;;;;;;18.00;60.70;;;;;;10212411;28;90574;-65
2022/12/10 20:48:43;;;;;;;;;;;18.00;60.70;;;;;;10213361;28;89696;-65
2022/12/10 20:53:45;;;;;;;;;;;18.00;61.90;;;;;;10212678;28;89439;-65
2022/12/10 20:58:48;;;;;;;;;;;18.00;61.30;;;;;;10212615;28;89030;-65
2022/12/10 21:03:49;;;;;;;;;;;18.00;61.20;;;;;;10210817;28;88327;-65
2022/12/10 21:08:52;;;;;;;;;;;17.90;62.20;;;;;;10211867;28;89004;-65
2022/12/10 21:13:54;;;;;;;;;;;17.90;61.30;;;;;;10212520;28;89065;-65
2022/12/10 21:18:56;;;;;;;;;;;17.80;61.30;;;;;;10213952;28;89138;-65
2022/12/10 21:23:57;;;;;;;;;;;17.70;61.40;;;;;;10212139;28;90166;-65
2022/12/10 21:29:01;;;;;;;;;;;17.70;61.60;;;;;;10211038;28;88499;-65
2022/12/10 21:34:02;;;;;;;;;;;17.60;61.70;;;;;;10211628;28;89841;-65
2022/12/10 21:39:06;;;;;;;;;;;17.50;61.80;;;;;;10210742;28;109691;-65
2022/12/10 21:44:08;;;;;;;;;;;17.50;61.90;;;;;;10212638;28;89045;-65
2022/12/10 21:49:10;;;;;;;;;;;17.50;62.00;;;;;;10212192;28;90060;-65
2022/12/10 21:54:12;;;;;;;;;;;17.40;62.00;;;;;;10210490;28;90174;-65
2022/12/10 21:59:14;;;;;;;;;;;17.40;62.30;;;;;;10209569;28;88992;-65
2022/12/10 22:04:16;;;;;;;;;;;17.30;62.40;;;;;;10210634;28;90287;-65
2022/12/10 22:09:18;;;;;;;;;;;17.30;62.60;;;;;;10211829;28;88852;-65
2022/12/10 22:14:20;;;;;;;;;;;17.20;62.60;;;;;;10195653;28;89122;-67
2022/12/10 22:19:22;;;;;;;;;;;17.20;62.60;;;;;;10217994;28;90012;-65
2022/12/10 22:24:23;;;;;;;;;;;17.20;62.70;;;;;;10216231;28;90755;-65
2022/12/10 22:29:26;;;;;;;;;;;17.10;62.70;;;;;;10217122;28;89187;-65
2022/12/10 22:34:28;;;;;;;;;;;17.00;62.70;;;;;;10216050;28;89006;-65
2022/12/10 22:39:30;;;;;;;;;;;17.00;62.70;;;;;;10218347;28;91157;-65
2022/12/10 22:44:31;;;;;;;;;;;17.00;62.80;;;;;;10216668;28;89455;-65
2022/12/10 22:49:33;;;;;;;;;;;17.00;62.70;;;;;;10215862;28;90106;-66
2022/12/10 22:54:39;;;;;;;;;;;16.90;62.50;;;;;;10216718;28;90126;-67
2022/12/10 22:59:42;;;;;;;;;;;16.90;61.70;;;;;;10218690;28;88742;-67
2022/12/10 23:04:46;;;;;;;;;;;16.80;61.40;;;;;;10215644;28;89047;-67
2022/12/10 23:09:48;;;;;;;;;;;16.70;61.30;;;;;;10216995;28;90073;-67
2022/12/10 23:14:50;;;;;;;;;;;16.60;61.40;;;;;;10216390;28;90862;-66
2022/12/10 23:19:52;;;;;;;;;;;16.60;61.60;;;;;;10215801;28;90165;-67
2022/12/10 23:24:54;;;;;;;;;;;16.50;61.60;;;;;;10216528;28;90065;-67
2022/12/10 23:29:55;;;;;;;;;;;16.40;61.60;;;;;;10215360;28;89014;-66
2022/12/10 23:34:57;;;;;;;;;;;16.40;61.50;;;;;;10215428;28;89088;-67
2022/12/10 23:39:59;;;;;;;;;;;16.30;61.70;;;;;;10215796;28;88876;-67
2022/12/10 23:45:01;;;;;;;;;;;16.30;61.60;;;;;;10214636;28;88885;-67
2022/12/10 23:50:03;;;;;;;;;;;16.20;61.30;;;;;;10216608;28;88563;-66
2022/12/10 23:55:04;;;;;;;;;;;16.20;61.30;;;;;;10216267;28;90220;-66
